createdAt,value
2023-03-02T00:02:17.657Z,20.90
2023-03-02T00:04:50.296Z,22.03
2023-03-02T00:07:20.828Z,22.87
2023-03-02T00:09:47.662Z,21.10
2023-03-02T00:12:15.868Z,19.97
2023-03-02T00:14:42.757Z,23.00
2023-03-02T00:17:10.547Z,21.67
2023-03-02T00:19:37.894Z,19.27
2023-03-02T00:22:05.703Z,19.97
2023-03-02T00:24:32.612Z,18.57
2023-03-02T00:26:59.333Z,20.17
2023-03-02T00:29:26.007Z,21.93
2023-03-02T00:31:52.838Z,20.50
2023-03-02T00:34:19.635Z,22.87
2023-03-02T00:36:49.422Z,21.53
2023-03-02T00:39:19.970Z,21.10
2023-03-02T00:41:48.318Z,27.07
2023-03-02T00:44:17.739Z,21.57
2023-03-02T00:46:44.880Z,22.83
2023-03-02T00:49:12.847Z,20.50
2023-03-02T00:51:39.609Z,18.03
2023-03-02T00:54:06.552Z,18.00
2023-03-02T00:56:33.560Z,18.53
2023-03-02T00:59:05.832Z,19.40
2023-03-02T01:01:32.869Z,20.00
2023-03-02T01:03:59.513Z,19.37
2023-03-02T01:06:26.260Z,18.77
2023-03-02T01:08:52.917Z,18.10
2023-03-02T01:11:21.702Z,19.13
2023-03-02T01:13:50.231Z,18.57
2023-03-02T01:16:17.489Z,18.90
2023-03-02T01:18:44.327Z,21.77
2023-03-02T01:21:13.952Z,22.47
2023-03-02T01:23:40.681Z,20.67
2023-03-02T01:26:07.473Z,18.67
2023-03-02T01:28:34.249Z,18.97
2023-03-02T01:31:02.676Z,18.83
2023-03-02T01:33:29.433Z,18.10
2023-03-02T01:35:56.191Z,18.93
2023-03-02T01:38:23.018Z,17.93
2023-03-02T01:40:49.684Z,17.77
2023-03-02T01:43:16.988Z,17.07
2023-03-02T01:45:49.037Z,18.57
2023-03-02T01:48:18.253Z,17.33
2023-03-02T01:50:45.399Z,17.93
2023-03-02T01:53:15.569Z,16.97
2023-03-02T01:55:44.203Z,16.40
2023-03-02T01:58:13.645Z,17.83
2023-03-02T02:00:41.598Z,16.93
2023-03-02T02:03:23.371Z,18.47
2023-03-02T02:06:06.274Z,21.10
2023-03-02T02:08:33.795Z,18.80
2023-03-02T02:11:00.899Z,16.83
2023-03-02T02:13:27.790Z,18.20
2023-03-02T02:15:54.681Z,17.43
2023-03-02T02:18:21.476Z,16.87
2023-03-02T02:20:52.657Z,16.83
2023-03-02T02:23:28.314Z,17.30
2023-03-02T02:26:10.192Z,16.20
2023-03-02T02:28:58.526Z,14.50
2023-03-02T02:31:28.850Z,15.03
2023-03-02T02:34:00.884Z,15.97
2023-03-02T02:36:34.116Z,17.43
2023-03-02T02:39:04.915Z,15.97
2023-03-02T02:41:39.100Z,15.13
2023-03-02T02:44:06.419Z,13.03
2023-03-02T02:46:34.449Z,14.57
2023-03-02T02:49:03.383Z,13.37
2023-03-02T02:51:30.438Z,13.50
2023-03-02T02:54:02.109Z,12.80
2023-03-02T02:56:33.454Z,13.53
2023-03-02T02:59:08.461Z,13.73
2023-03-02T03:01:35.683Z,13.70
2023-03-02T03:04:04.604Z,13.87
2023-03-02T03:06:42.492Z,13.63
2023-03-02T03:09:12.815Z,13.23
2023-03-02T03:11:43.360Z,13.17
2023-03-02T03:14:25.032Z,12.33
2023-03-02T03:16:52.078Z,12.03
2023-03-02T03:19:32.803Z,11.33
2023-03-02T03:22:01.763Z,12.77
2023-03-02T03:24:31.598Z,10.67
2023-03-02T03:26:58.574Z,10.70
2023-03-02T03:29:28.289Z,9.67
2023-03-02T03:31:56.762Z,9.80
2023-03-02T03:34:24.574Z,9.83
2023-03-02T03:36:51.784Z,9.93
2023-03-02T03:39:18.879Z,8.70
2023-03-02T03:41:45.684Z,9.40
2023-03-02T03:44:12.499Z,9.07
2023-03-02T03:46:39.270Z,9.53
2023-03-02T03:49:06.220Z,8.90
2023-03-02T03:51:35.409Z,9.17
2023-03-02T03:54:04.257Z,8.80
2023-03-02T03:56:34.234Z,10.17
2023-03-02T03:59:07.523Z,9.23
2023-03-02T04:01:58.938Z,11.13
2023-03-02T04:04:32.464Z,10.63
2023-03-02T04:06:59.994Z,11.23
2023-03-02T04:09:27.101Z,9.47
2023-03-02T04:11:55.588Z,9.60
2023-03-02T04:14:23.941Z,10.60
2023-03-02T04:16:51.496Z,10.60
2023-03-02T04:19:18.291Z,9.43
2023-03-02T04:21:48.267Z,10.47
2023-03-02T04:24:16.418Z,9.77
2023-03-02T04:26:43.799Z,8.90
2023-03-02T04:29:10.831Z,9.50
2023-03-02T04:31:38.294Z,10.20
2023-03-02T04:34:05.888Z,10.40
2023-03-02T04:36:35.600Z,10.00
2023-03-02T04:39:04.170Z,11.97
2023-03-02T04:41:31.027Z,10.23
2023-03-02T04:43:57.915Z,11.47
2023-03-02T04:46:26.868Z,12.90
2023-03-02T04:48:54.486Z,11.63
2023-03-02T04:51:31.053Z,11.37
2023-03-02T04:54:01.233Z,12.33
2023-03-02T04:56:28.452Z,11.40
2023-03-02T04:58:55.856Z,11.57
2023-03-02T05:01:23.189Z,11.63
2023-03-02T05:03:50.378Z,10.83
2023-03-02T05:06:17.532Z,12.07
2023-03-02T05:08:44.556Z,10.50
2023-03-02T05:11:22.323Z,10.93
2023-03-02T05:13:50.995Z,9.93
2023-03-02T05:16:18.559Z,9.53
2023-03-02T05:18:45.884Z,10.57
2023-03-02T05:21:14.429Z,10.50
2023-03-02T05:23:42.829Z,10.67
2023-03-02T05:26:09.887Z,9.93
2023-03-02T05:28:36.687Z,9.47
2023-03-02T05:31:03.856Z,10.27
2023-03-02T05:33:30.870Z,9.40
2023-03-02T05:35:57.748Z,13.87
2023-03-02T05:38:24.844Z,8.83
2023-03-02T05:40:51.677Z,10.03
2023-03-02T05:43:21.357Z,9.30
2023-03-02T05:45:48.060Z,9.83
2023-03-02T05:48:15.531Z,9.07
2023-03-02T05:50:42.768Z,9.57
2023-03-02T05:53:09.449Z,9.60
2023-03-02T05:55:37.209Z,9.83
2023-03-02T05:58:09.180Z,9.70
2023-03-02T06:00:36.193Z,10.67
2023-03-02T06:03:03.144Z,10.30
2023-03-02T06:05:29.963Z,9.23
2023-03-02T06:07:56.796Z,10.13
2023-03-02T06:10:24.433Z,9.27
2023-03-02T06:12:51.392Z,10.23
2023-03-02T06:15:18.406Z,9.07
2023-03-02T06:17:45.473Z,11.23
2023-03-02T06:20:13.152Z,11.17
2023-03-02T06:22:42.104Z,9.37
2023-03-02T06:25:10.537Z,9.67
2023-03-02T06:27:39.176Z,10.83
2023-03-02T06:30:14.230Z,9.80
2023-03-02T06:32:41.902Z,10.60
2023-03-02T06:35:09.492Z,11.30
2023-03-02T06:37:36.842Z,10.80
2023-03-02T06:40:08.648Z,11.77
2023-03-02T06:42:35.314Z,11.00
2023-03-02T06:45:02.333Z,10.30
2023-03-02T06:47:29.017Z,10.43
2023-03-02T06:49:56.606Z,7.30
2023-03-02T06:52:23.238Z,7.80
2023-03-02T06:54:49.906Z,9.03
2023-03-02T06:57:16.838Z,9.03
2023-03-02T06:59:43.646Z,8.37
2023-03-02T07:02:11.187Z,7.43
2023-03-02T07:04:38.100Z,7.63
2023-03-02T07:07:05.002Z,8.00
2023-03-02T07:09:34.817Z,9.57
2023-03-02T07:12:01.673Z,8.57
2023-03-02T07:14:28.427Z,9.63
2023-03-02T07:16:57.509Z,10.23
2023-03-02T07:19:25.193Z,9.77
2023-03-02T07:21:51.848Z,11.03
2023-03-02T07:24:18.587Z,11.43
2023-03-02T07:26:45.398Z,7.83
2023-03-02T07:29:12.166Z,9.50
2023-03-02T07:31:39.085Z,10.93
2023-03-02T07:34:05.812Z,9.73
2023-03-02T07:36:32.600Z,8.77
2023-03-02T07:38:59.284Z,12.03
2023-03-02T07:41:26.009Z,10.93
2023-03-02T07:43:52.679Z,11.17
2023-03-02T07:46:19.434Z,11.70
2023-03-02T07:48:46.218Z,10.43
2023-03-02T07:51:13.035Z,10.13
2023-03-02T07:53:39.699Z,10.27
2023-03-02T07:56:11.216Z,10.57
2023-03-02T07:58:38.472Z,10.60
2023-03-02T08:01:05.414Z,9.57
2023-03-02T08:03:34.751Z,8.77
2023-03-02T08:06:09.913Z,10.03
2023-03-02T08:08:37.269Z,10.73
2023-03-02T08:11:10.826Z,10.23
2023-03-02T08:13:38.116Z,9.90
2023-03-02T08:16:07.379Z,9.03
2023-03-02T08:18:34.453Z,9.80
2023-03-02T08:21:01.373Z,11.17
2023-03-02T08:23:28.404Z,10.20
2023-03-02T08:25:55.651Z,10.60
2023-03-02T08:28:23.320Z,9.70
2023-03-02T08:30:57.090Z,10.63
2023-03-02T08:33:24.199Z,10.60
2023-03-02T08:35:56.075Z,10.80
2023-03-02T08:38:23.768Z,10.70
2023-03-02T08:40:52.284Z,11.03
2023-03-02T08:43:24.785Z,11.60
2023-03-02T08:45:53.455Z,10.03
2023-03-02T08:48:22.193Z,10.37
2023-03-02T08:51:00.184Z,10.53
2023-03-02T08:53:28.463Z,10.53
2023-03-02T08:55:55.886Z,10.43
2023-03-02T08:58:22.882Z,9.90
2023-03-02T09:00:49.807Z,11.10
2023-03-02T09:03:17.003Z,9.83
2023-03-02T09:05:44.090Z,9.53
2023-03-02T09:08:11.510Z,11.47
2023-03-02T09:10:38.605Z,10.47
2023-03-02T09:13:08.046Z,10.90
2023-03-02T09:15:35.036Z,10.07
2023-03-02T09:18:02.079Z,11.50
2023-03-02T09:20:28.782Z,8.63
2023-03-02T09:22:55.538Z,10.37
2023-03-02T09:25:22.263Z,11.17
2023-03-02T09:27:49.034Z,10.90
2023-03-02T09:30:16.378Z,11.53
2023-03-02T09:32:43.191Z,10.40
2023-03-02T09:35:10.140Z,10.13
2023-03-02T09:37:38.832Z,11.20
2023-03-02T09:40:16.424Z,10.83
2023-03-02T09:42:59.784Z,12.37
2023-03-02T09:45:57.433Z,10.83
2023-03-02T09:48:45.664Z,11.57
2023-03-02T09:51:28.080Z,10.50
2023-03-02T09:54:07.919Z,10.77
2023-03-02T09:56:39.681Z,11.00
2023-03-02T09:59:24.392Z,10.40
2023-03-02T10:01:56.317Z,10.83
2023-03-02T10:04:33.418Z,10.83
2023-03-02T10:07:12.844Z,10.97
2023-03-02T10:09:40.909Z,9.90
2023-03-02T10:12:39.061Z,10.80
2023-03-02T10:15:10.465Z,10.83
2023-03-02T10:17:51.925Z,12.53
2023-03-02T10:20:34.602Z,10.43
2023-03-02T10:23:31.442Z,11.83
2023-03-02T10:26:23.460Z,11.60
2023-03-02T10:28:57.846Z,10.87
2023-03-02T10:31:28.826Z,8.67
2023-03-02T10:33:56.414Z,10.20
2023-03-02T10:36:29.839Z,10.83
2023-03-02T10:38:58.104Z,10.57
2023-03-02T10:41:41.154Z,10.57
2023-03-02T10:44:29.907Z,10.30
2023-03-02T10:46:56.592Z,10.57
2023-03-02T10:49:29.763Z,10.40
2023-03-02T10:52:02.385Z,10.17
2023-03-02T10:54:31.437Z,10.20
2023-03-02T10:57:04.705Z,10.47
2023-03-02T10:59:47.539Z,11.00
2023-03-02T11:02:18.498Z,10.67
2023-03-02T11:04:47.868Z,11.30
2023-03-02T11:07:20.006Z,11.60
2023-03-02T11:10:00.063Z,11.40
2023-03-02T11:12:26.983Z,11.10
2023-03-02T11:15:18.820Z,11.83
2023-03-02T11:17:50.784Z,10.73
2023-03-02T11:20:26.113Z,11.50
2023-03-02T11:23:14.153Z,11.33
2023-03-02T11:25:48.516Z,12.07
2023-03-02T11:28:30.449Z,11.57
2023-03-02T11:30:59.157Z,10.77
2023-03-02T11:33:35.555Z,12.57
2023-03-02T11:36:17.654Z,11.47
2023-03-02T11:38:50.465Z,12.57
2023-03-02T11:41:30.603Z,11.30
2023-03-02T11:44:01.497Z,12.80
2023-03-02T11:46:32.460Z,11.30
2023-03-02T11:49:17.643Z,10.90
2023-03-02T11:51:58.470Z,10.70
2023-03-02T11:54:36.716Z,11.80
2023-03-02T11:57:04.027Z,10.33
2023-03-02T11:59:32.437Z,10.30
2023-03-02T12:02:00.844Z,10.30
2023-03-02T12:04:29.714Z,10.70
2023-03-02T12:06:56.590Z,10.20
2023-03-02T12:09:23.345Z,10.43
2023-03-02T12:12:00.693Z,10.70
2023-03-02T12:14:37.219Z,9.87
2023-03-02T12:17:25.784Z,10.37
2023-03-02T12:20:10.060Z,9.77
2023-03-02T12:22:37.766Z,10.13
2023-03-02T12:25:26.783Z,10.77
2023-03-02T12:27:55.174Z,10.37
2023-03-02T12:30:28.266Z,10.10
2023-03-02T12:33:10.259Z,10.10
2023-03-02T12:35:38.552Z,9.83
2023-03-02T12:38:18.165Z,11.07
2023-03-02T12:41:04.361Z,9.70
2023-03-02T12:43:31.162Z,10.43
2023-03-02T12:46:33.626Z,9.77
2023-03-02T12:49:10.165Z,9.93
2023-03-02T12:51:57.906Z,10.63
2023-03-02T12:54:27.304Z,10.37
2023-03-02T12:57:17.286Z,9.90
2023-03-02T12:59:51.877Z,9.97
2023-03-02T13:02:21.599Z,9.13
2023-03-02T13:05:03.497Z,10.07
2023-03-02T13:07:41.229Z,10.17
2023-03-02T13:10:36.150Z,10.43
2023-03-02T13:13:14.026Z,9.87
2023-03-02T13:16:08.548Z,10.33
2023-03-02T13:18:39.410Z,9.40
2023-03-02T13:21:06.516Z,10.73
2023-03-02T13:23:34.220Z,10.33
2023-03-02T13:26:03.733Z,9.93
2023-03-02T13:28:32.159Z,9.83
2023-03-02T13:31:21.122Z,9.90
2023-03-02T13:33:50.353Z,9.30
2023-03-02T13:36:28.657Z,9.53
2023-03-02T13:38:59.326Z,8.60
2023-03-02T13:41:34.606Z,9.73
2023-03-02T13:44:19.671Z,10.30
2023-03-02T13:46:47.563Z,9.30
2023-03-02T13:49:14.492Z,10.33
2023-03-02T13:51:44.463Z,11.03
2023-03-02T13:54:25.511Z,9.70
2023-03-02T13:56:53.813Z,10.03
2023-03-02T13:59:21.850Z,10.10
2023-03-02T14:01:48.949Z,8.80
2023-03-02T14:04:19.219Z,10.40
2023-03-02T14:06:46.034Z,10.03
2023-03-02T14:09:13.346Z,9.63
2023-03-02T14:12:06.729Z,9.73
2023-03-02T14:14:37.864Z,10.37
2023-03-02T14:17:13.830Z,10.23
2023-03-02T14:19:40.635Z,10.13
2023-03-02T14:22:10.879Z,9.83
2023-03-02T14:24:37.549Z,9.70
2023-03-02T14:27:04.204Z,9.93
2023-03-02T14:29:38.956Z,10.53
2023-03-02T14:32:11.039Z,10.47
2023-03-02T14:34:41.903Z,10.20
2023-03-02T14:37:15.616Z,9.40
2023-03-02T14:39:56.821Z,10.10
2023-03-02T14:42:24.037Z,9.87
2023-03-02T14:44:51.844Z,10.57
2023-03-02T14:47:19.710Z,10.10
2023-03-02T14:49:47.378Z,9.57
2023-03-02T14:52:14.044Z,9.20
2023-03-02T14:54:40.789Z,9.10
2023-03-02T14:57:17.338Z,8.33
2023-03-02T14:59:44.048Z,9.30
2023-03-02T15:02:24.408Z,9.10
2023-03-02T15:04:56.023Z,7.93
2023-03-02T15:07:24.198Z,8.00
2023-03-02T15:09:50.858Z,7.03
2023-03-02T15:12:17.674Z,7.07
2023-03-02T15:14:44.324Z,7.67
2023-03-02T15:17:11.107Z,8.13
2023-03-02T15:19:37.903Z,8.20
2023-03-02T15:22:04.818Z,8.67
2023-03-02T15:24:33.422Z,9.37
2023-03-02T15:27:00.512Z,6.23
2023-03-02T15:29:27.291Z,8.60
2023-03-02T15:31:54.151Z,9.20
2023-03-02T15:34:21.344Z,8.17
2023-03-02T15:36:48.010Z,8.23
2023-03-02T15:39:16.483Z,5.10
2023-03-02T15:41:43.508Z,6.93
2023-03-02T15:44:21.829Z,5.07
2023-03-02T15:46:49.671Z,3.50
2023-03-02T15:49:16.382Z,3.70
2023-03-02T15:51:43.191Z,3.47
2023-03-02T15:54:10.911Z,3.10
2023-03-02T15:56:44.028Z,2.60
2023-03-02T15:59:12.036Z,2.70
2023-03-02T16:01:38.868Z,3.00
2023-03-02T16:04:05.618Z,2.30
2023-03-02T16:06:32.536Z,3.03
2023-03-02T16:08:59.156Z,2.33
2023-03-02T16:11:25.906Z,2.80
2023-03-02T16:13:52.889Z,2.10
2023-03-02T16:16:20.898Z,2.60
2023-03-02T16:18:54.539Z,2.00
2023-03-02T16:21:21.926Z,2.90
2023-03-02T16:23:48.887Z,3.10
2023-03-02T16:26:19.510Z,2.80
2023-03-02T16:28:47.027Z,3.00
2023-03-02T16:31:26.979Z,2.60
2023-03-02T16:33:57.490Z,2.60
2023-03-02T16:36:24.353Z,2.67
2023-03-02T16:38:51.288Z,3.00
2023-03-02T16:41:20.820Z,2.87
2023-03-02T16:43:55.975Z,2.40
2023-03-02T16:46:24.358Z,2.40
2023-03-02T16:48:51.428Z,2.80
2023-03-02T16:51:18.993Z,2.53
2023-03-02T16:53:46.231Z,2.43
2023-03-02T16:56:13.493Z,2.47
2023-03-02T16:58:42.018Z,2.50
2023-03-02T17:01:11.996Z,3.27
2023-03-02T17:03:39.055Z,2.67
2023-03-02T17:06:07.039Z,2.30
2023-03-02T17:08:34.026Z,2.27
2023-03-02T17:11:00.935Z,2.20
2023-03-02T17:13:27.944Z,2.50
2023-03-02T17:15:55.067Z,2.30
2023-03-02T17:18:21.803Z,2.60
2023-03-02T17:20:52.173Z,2.70
2023-03-02T17:23:19.242Z,2.43
2023-03-02T17:25:45.878Z,2.60
2023-03-02T17:28:14.905Z,2.80
2023-03-02T17:30:42.467Z,2.67
2023-03-02T17:33:09.694Z,3.00
2023-03-02T17:35:36.439Z,3.40
2023-03-02T17:38:03.170Z,3.17
2023-03-02T17:40:29.959Z,2.80
2023-03-02T17:42:57.844Z,2.80
2023-03-02T17:45:27.279Z,2.80
2023-03-02T17:47:55.171Z,3.20
2023-03-02T17:50:22.487Z,2.83
2023-03-02T17:52:49.741Z,2.97
2023-03-02T17:55:16.787Z,2.80
2023-03-02T17:57:43.557Z,3.00
2023-03-02T18:00:14.161Z,2.73
2023-03-02T18:02:40.918Z,2.93
2023-03-02T18:05:10.089Z,2.70
2023-03-02T18:07:37.529Z,2.63
2023-03-02T18:10:05.395Z,2.80
2023-03-02T18:12:32.773Z,2.73
2023-03-02T18:14:59.546Z,3.17
2023-03-02T18:17:26.242Z,2.67
2023-03-02T18:19:52.936Z,2.90
2023-03-02T18:22:21.508Z,3.03
2023-03-02T18:24:48.633Z,3.10
2023-03-02T18:27:15.370Z,3.17
2023-03-02T18:29:42.034Z,2.93
2023-03-02T18:32:10.316Z,2.83
2023-03-02T18:34:37.065Z,3.13
2023-03-02T18:37:03.761Z,3.03
2023-03-02T18:39:30.553Z,3.13
2023-03-02T18:41:57.216Z,3.23
2023-03-02T18:44:27.903Z,2.93
2023-03-02T18:46:55.829Z,3.17
2023-03-02T18:49:23.581Z,3.93
2023-03-02T18:51:50.342Z,3.97
2023-03-02T18:54:16.996Z,3.50
2023-03-02T18:56:43.755Z,3.80
2023-03-02T18:59:11.200Z,3.80
2023-03-02T19:01:38.075Z,4.43
2023-03-02T19:04:05.099Z,4.00
2023-03-02T19:06:32.559Z,4.43
2023-03-02T19:08:59.238Z,4.90
2023-03-02T19:11:26.411Z,4.57
2023-03-02T19:13:53.169Z,4.00
2023-03-02T19:16:19.950Z,4.20
2023-03-02T19:18:46.879Z,3.90
2023-03-02T19:21:13.582Z,4.00
2023-03-02T19:23:41.124Z,5.47
2023-03-02T19:26:09.161Z,6.23
2023-03-02T19:28:37.211Z,5.50
2023-03-02T19:31:08.855Z,4.90
2023-03-02T19:33:36.453Z,3.87
2023-03-02T19:36:04.070Z,3.97
2023-03-02T19:38:31.186Z,4.53
2023-03-02T19:40:59.524Z,4.30
2023-03-02T19:43:27.399Z,4.97
2023-03-02T19:45:54.908Z,4.30
2023-03-02T19:48:21.770Z,4.40
2023-03-02T19:50:48.777Z,4.30
2023-03-02T19:53:17.158Z,4.40
2023-03-02T19:55:44.802Z,4.77
2023-03-02T19:58:17.426Z,5.00
2023-03-02T20:00:46.114Z,5.13
2023-03-02T20:03:13.617Z,4.97
2023-03-02T20:05:40.400Z,4.90
2023-03-02T20:08:07.763Z,4.03
2023-03-02T20:10:43.809Z,4.63
2023-03-02T20:13:11.405Z,4.00
2023-03-02T20:15:41.824Z,4.03
2023-03-02T20:18:11.339Z,4.93
2023-03-02T20:20:38.060Z,5.83
2023-03-02T20:23:04.918Z,4.57
2023-03-02T20:25:32.036Z,4.60
2023-03-02T20:27:58.860Z,6.60
2023-03-02T20:30:31.160Z,6.33
2023-03-02T20:32:59.654Z,5.83
2023-03-02T20:35:27.618Z,6.10
2023-03-02T20:37:55.800Z,6.23
2023-03-02T20:40:25.207Z,5.87
2023-03-02T20:42:52.235Z,6.30
2023-03-02T20:45:19.372Z,5.47
2023-03-02T20:47:47.234Z,5.60
2023-03-02T20:50:18.930Z,5.40
2023-03-02T20:52:45.754Z,5.30
2023-03-02T20:55:12.716Z,4.87
2023-03-02T20:57:39.836Z,4.70
2023-03-02T21:00:16.361Z,4.90
2023-03-02T21:02:46.757Z,5.63
2023-03-02T21:05:15.510Z,6.27
2023-03-02T21:07:43.107Z,6.33
2023-03-02T21:10:11.365Z,6.03
2023-03-02T21:12:38.127Z,6.27
2023-03-02T21:15:05.517Z,6.10
2023-03-02T21:17:32.264Z,5.90
2023-03-02T21:19:59.007Z,5.93
2023-03-02T21:22:25.740Z,6.70
2023-03-02T21:24:55.722Z,6.30
2023-03-02T21:27:22.693Z,6.37
2023-03-02T21:29:49.808Z,5.87
2023-03-02T21:32:16.630Z,5.60
2023-03-02T21:34:44.873Z,6.17
2023-03-02T21:37:11.574Z,6.43
2023-03-02T21:39:38.341Z,5.93
2023-03-02T21:42:05.232Z,7.03
2023-03-02T21:44:32.351Z,6.50
2023-03-02T21:46:59.261Z,6.87
2023-03-02T21:49:26.397Z,6.37
2023-03-02T21:51:53.243Z,7.20
2023-03-02T21:54:19.883Z,7.23
2023-03-02T21:56:46.626Z,6.10
2023-03-02T21:59:13.348Z,6.50
2023-03-02T22:01:40.083Z,6.77
2023-03-02T22:04:06.949Z,8.13
2023-03-02T22:06:34.731Z,7.53
2023-03-02T22:09:02.133Z,7.23
2023-03-02T22:11:31.971Z,7.63
2023-03-02T22:14:02.670Z,8.33
2023-03-02T22:16:35.833Z,7.70
2023-03-02T22:19:18.330Z,7.83
2023-03-02T22:21:48.161Z,8.30
2023-03-02T22:24:24.704Z,8.57
2023-03-02T22:27:08.961Z,8.37
2023-03-02T22:29:42.136Z,8.50
2023-03-02T22:32:23.135Z,9.10
2023-03-02T22:34:58.079Z,8.80
2023-03-02T22:37:28.117Z,9.50
2023-03-02T22:39:57.469Z,12.20
2023-03-02T22:42:27.109Z,15.57
2023-03-02T22:45:06.357Z,13.63
2023-03-02T22:47:33.036Z,15.77
2023-03-02T22:50:17.755Z,17.70
2023-03-02T22:52:45.350Z,18.23
2023-03-02T22:55:34.782Z,18.30
2023-03-02T22:58:17.442Z,18.27
2023-03-02T23:00:44.174Z,16.77
2023-03-02T23:03:22.520Z,16.73
2023-03-02T23:05:53.087Z,15.83
2023-03-02T23:08:22.678Z,15.80
2023-03-02T23:10:51.539Z,17.60
2023-03-02T23:13:21.215Z,16.93
2023-03-02T23:15:48.784Z,20.23
2023-03-02T23:18:18.368Z,20.20
2023-03-02T23:20:45.070Z,19.83
2023-03-02T23:23:11.801Z,19.70
2023-03-02T23:25:38.464Z,22.13
2023-03-02T23:28:05.493Z,17.90
2023-03-02T23:30:32.191Z,17.77
2023-03-02T23:32:58.860Z,17.33
2023-03-02T23:35:26.940Z,21.00
2023-03-02T23:37:53.712Z,24.60
2023-03-02T23:40:23.272Z,21.13
2023-03-02T23:42:50.625Z,19.37
2023-03-02T23:45:17.769Z,19.03
2023-03-02T23:47:44.698Z,18.13
2023-03-02T23:50:13.020Z,19.73
2023-03-02T23:52:41.054Z,19.03
2023-03-02T23:55:09.176Z,17.80
2023-03-02T23:57:35.857Z,17.67
